Metar z połowy godziny Komunikat METAR ze strony awiacja.imgw.pl Metar G30 EPBY METAR EPBY 240430Z 18010KT 5000 -RA BR FEW007 BKN042 01/M01 Q1019 =